createdAt,value
2023-03-04T00:02:05.898Z,62.82
2023-03-04T00:04:32.497Z,62.57
2023-03-04T00:06:59.077Z,62.63
2023-03-04T00:09:25.875Z,62.32
2023-03-04T00:11:52.524Z,62.54
2023-03-04T00:14:19.559Z,62.62
2023-03-04T00:16:46.294Z,63.15
2023-03-04T00:19:13.259Z,63.06
2023-03-04T00:21:40.089Z,62.92
2023-03-04T00:24:07.146Z,63.13
2023-03-04T00:26:33.982Z,62.87
2023-03-04T00:29:00.641Z,62.93
2023-03-04T00:31:27.398Z,63.03
2023-03-04T00:33:54.325Z,62.98
2023-03-04T00:36:21.663Z,62.72
2023-03-04T00:38:48.519Z,62.60
2023-03-04T00:41:15.255Z,62.25
2023-03-04T00:43:42.207Z,62.42
2023-03-04T00:46:08.942Z,62.36
2023-03-04T00:48:35.816Z,62.35
2023-03-04T00:51:02.427Z,62.45
2023-03-04T00:53:29.257Z,62.17
2023-03-04T00:55:56.006Z,62.64
2023-03-04T00:58:22.644Z,62.56
2023-03-04T01:00:49.196Z,62.29
2023-03-04T01:03:16.117Z,62.61
2023-03-04T01:05:42.999Z,62.81
2023-03-04T01:08:09.624Z,62.40
2023-03-04T01:10:36.234Z,62.18
2023-03-04T01:13:02.886Z,62.63
2023-03-04T01:15:29.609Z,62.59
2023-03-04T01:17:56.397Z,62.46
2023-03-04T01:20:24.741Z,62.19
2023-03-04T01:22:51.505Z,62.44
2023-03-04T01:25:18.316Z,61.93
2023-03-04T01:27:45.173Z,61.99
2023-03-04T01:30:12.424Z,61.99
2023-03-04T01:32:39.156Z,62.17
2023-03-04T01:35:06.602Z,61.95
2023-03-04T01:37:33.455Z,61.84
2023-03-04T01:40:00.102Z,62.10
2023-03-04T01:42:31.341Z,62.82
2023-03-04T01:45:00.230Z,62.56
2023-03-04T01:47:29.227Z,62.73
2023-03-04T01:49:57.909Z,62.85
2023-03-04T01:52:27.245Z,63.09
2023-03-04T01:54:54.009Z,62.82
2023-03-04T01:57:23.555Z,63.14
2023-03-04T02:00:36.593Z,62.80
2023-03-04T02:03:16.122Z,62.47
2023-03-04T02:05:48.266Z,62.42
2023-03-04T02:08:17.498Z,62.45
2023-03-04T02:10:45.290Z,61.93
2023-03-04T02:13:13.321Z,62.10
2023-03-04T02:15:40.824Z,62.36
2023-03-04T02:18:19.408Z,62.38
2023-03-04T02:21:09.600Z,62.48
2023-03-04T02:23:39.195Z,62.73
2023-03-04T02:26:21.099Z,62.69
2023-03-04T02:28:51.633Z,62.45
2023-03-04T02:31:25.915Z,62.45
2023-03-04T02:33:56.019Z,62.39
2023-03-04T02:36:23.632Z,63.27
2023-03-04T02:38:52.520Z,63.08
2023-03-04T02:41:25.825Z,63.71
2023-03-04T02:43:55.425Z,63.81
2023-03-04T02:46:23.220Z,63.83
2023-03-04T02:48:51.270Z,63.69
2023-03-04T02:51:18.104Z,63.93
2023-03-04T02:53:45.147Z,63.97
2023-03-04T02:56:12.299Z,64.33
2023-03-04T02:58:40.676Z,64.22
2023-03-04T03:01:08.766Z,63.81
2023-03-04T03:03:35.595Z,63.61
2023-03-04T03:06:02.327Z,63.70
2023-03-04T03:08:29.685Z,63.43
2023-03-04T03:10:56.446Z,63.30
2023-03-04T03:13:24.204Z,63.24
2023-03-04T03:15:51.048Z,63.49
2023-03-04T03:18:18.074Z,63.07
2023-03-04T03:20:44.643Z,63.23
2023-03-04T03:23:11.404Z,63.33
2023-03-04T03:25:38.516Z,63.28
2023-03-04T03:28:06.271Z,63.75
2023-03-04T03:30:32.826Z,64.09
2023-03-04T03:32:59.717Z,63.58
2023-03-04T03:35:27.138Z,63.44
2023-03-04T03:37:53.838Z,63.83
2023-03-04T03:40:20.364Z,63.55
2023-03-04T03:42:46.986Z,63.87
2023-03-04T03:45:13.687Z,63.89
2023-03-04T03:47:40.402Z,63.90
2023-03-04T03:50:07.490Z,64.33
2023-03-04T03:52:34.390Z,64.49
2023-03-04T03:55:01.892Z,64.53
2023-03-04T03:57:29.515Z,64.04
2023-03-04T03:59:56.573Z,64.05
2023-03-04T04:02:23.370Z,64.13
2023-03-04T04:04:50.109Z,64.24
2023-03-04T04:07:17.453Z,63.96
2023-03-04T04:09:44.725Z,63.78
2023-03-04T04:12:14.157Z,63.66
2023-03-04T04:14:40.989Z,63.82
2023-03-04T04:17:08.249Z,63.57
2023-03-04T04:19:35.376Z,63.83
2023-03-04T04:22:03.368Z,63.51
2023-03-04T04:24:30.014Z,63.67
2023-03-04T04:26:57.474Z,63.94
2023-03-04T04:29:24.105Z,63.61
2023-03-04T04:31:51.458Z,63.74
2023-03-04T04:34:18.303Z,63.93
2023-03-04T04:36:45.042Z,63.87
2023-03-04T04:39:11.799Z,63.87
2023-03-04T04:41:41.586Z,64.03
2023-03-04T04:44:09.167Z,64.21
2023-03-04T04:46:36.401Z,64.39
2023-03-04T04:49:03.319Z,64.60
2023-03-04T04:51:30.196Z,64.12
2023-03-04T04:53:59.285Z,64.48
2023-03-04T04:56:27.569Z,64.39
2023-03-04T04:58:57.260Z,64.17
2023-03-04T05:01:25.337Z,64.08
2023-03-04T05:03:55.527Z,64.68
2023-03-04T05:06:24.461Z,64.49
2023-03-04T05:08:51.824Z,65.01
2023-03-04T05:11:19.681Z,65.40
2023-03-04T05:13:48.169Z,65.16
2023-03-04T05:16:16.599Z,65.37
2023-03-04T05:18:43.596Z,65.30
2023-03-04T05:21:10.810Z,65.10
2023-03-04T05:23:40.445Z,65.20
2023-03-04T05:26:08.844Z,64.83
2023-03-04T05:28:35.702Z,65.01
2023-03-04T05:31:02.569Z,65.05
2023-03-04T05:33:29.465Z,64.97
2023-03-04T05:35:56.939Z,64.85
2023-03-04T05:38:25.100Z,64.91
2023-03-04T05:40:57.565Z,65.17
2023-03-04T05:43:25.137Z,65.01
2023-03-04T05:45:51.878Z,64.81
2023-03-04T05:48:18.824Z,64.42
2023-03-04T05:50:45.535Z,64.40
2023-03-04T05:53:12.404Z,64.36
2023-03-04T05:55:39.149Z,63.87
2023-03-04T05:58:05.853Z,63.85
2023-03-04T06:00:32.535Z,64.02
2023-03-04T06:02:59.312Z,63.75
2023-03-04T06:05:26.102Z,63.23
2023-03-04T06:07:52.744Z,63.22
2023-03-04T06:10:19.285Z,63.14
2023-03-04T06:12:45.907Z,63.48
2023-03-04T06:15:13.476Z,63.30
2023-03-04T06:17:42.325Z,62.78
2023-03-04T06:20:11.155Z,62.70
2023-03-04T06:22:38.306Z,62.31
2023-03-04T06:25:05.673Z,62.23
2023-03-04T06:27:32.493Z,62.00
2023-03-04T06:29:59.336Z,62.50
2023-03-04T06:32:26.420Z,62.08
2023-03-04T06:34:53.534Z,61.60
2023-03-04T06:37:20.227Z,61.56
2023-03-04T06:39:46.996Z,61.40
2023-03-04T06:42:13.857Z,61.00
2023-03-04T06:44:40.692Z,60.40
2023-03-04T06:47:08.050Z,59.58
2023-03-04T06:49:34.804Z,58.74
2023-03-04T06:52:01.857Z,58.54
2023-03-04T06:54:28.459Z,58.10
2023-03-04T06:56:55.027Z,58.37
2023-03-04T06:59:21.763Z,59.35
2023-03-04T07:01:48.393Z,59.01
2023-03-04T07:04:15.071Z,55.67
2023-03-04T07:06:41.894Z,50.78
2023-03-04T07:09:08.657Z,46.94
2023-03-04T07:11:35.680Z,45.05
2023-03-04T07:14:02.599Z,41.89
2023-03-04T07:16:29.285Z,38.61
2023-03-04T07:18:56.004Z,36.75
2023-03-04T07:21:22.742Z,32.70
2023-03-04T07:23:49.474Z,30.68
2023-03-04T07:26:16.327Z,31.32
2023-03-04T07:28:43.567Z,30.47
2023-03-04T07:31:22.866Z,28.60
2023-03-04T07:33:50.695Z,29.16
2023-03-04T07:36:19.252Z,26.89
2023-03-04T07:38:47.832Z,26.47
2023-03-04T07:41:15.802Z,26.04
2023-03-04T07:43:42.640Z,25.24
2023-03-04T07:46:09.866Z,24.42
2023-03-04T07:48:36.996Z,23.44
2023-03-04T07:51:16.158Z,23.70
2023-03-04T07:53:45.359Z,24.65
2023-03-04T07:56:16.193Z,25.24
2023-03-04T07:58:42.940Z,26.30
2023-03-04T08:01:15.001Z,27.37
2023-03-04T08:03:42.562Z,28.59
2023-03-04T08:06:11.574Z,29.57
2023-03-04T08:08:39.059Z,30.86
2023-03-04T08:11:08.074Z,31.40
2023-03-04T08:13:35.726Z,32.23
2023-03-04T08:16:03.152Z,33.00
2023-03-04T08:18:30.225Z,33.54
2023-03-04T08:20:56.858Z,34.33
2023-03-04T08:23:23.902Z,34.78
2023-03-04T08:25:51.096Z,35.39
2023-03-04T08:28:18.383Z,35.82
2023-03-04T08:30:45.237Z,36.25
2023-03-04T08:33:12.030Z,36.25
2023-03-04T08:35:39.778Z,36.41
2023-03-04T08:38:06.517Z,36.67
2023-03-04T08:40:33.427Z,36.85
2023-03-04T08:43:00.276Z,37.07
2023-03-04T08:45:27.209Z,37.38
2023-03-04T08:47:53.968Z,37.41
2023-03-04T08:50:22.449Z,37.22
2023-03-04T08:52:49.303Z,36.70
2023-03-04T08:55:16.008Z,36.72
2023-03-04T08:57:42.834Z,36.66
2023-03-04T09:00:10.434Z,36.28
2023-03-04T09:02:37.190Z,36.35
2023-03-04T09:05:04.315Z,36.42
2023-03-04T09:07:30.978Z,35.93
2023-03-04T09:09:57.695Z,35.48
2023-03-04T09:12:24.479Z,35.05
2023-03-04T09:15:04.630Z,35.01
2023-03-04T09:17:35.311Z,34.86
2023-03-04T09:20:04.408Z,34.79
2023-03-04T09:22:31.670Z,34.93
2023-03-04T09:24:58.523Z,34.34
2023-03-04T09:27:25.161Z,34.15
2023-03-04T09:29:52.203Z,33.89
2023-03-04T09:32:18.822Z,33.32
2023-03-04T09:34:45.674Z,33.54
2023-03-04T09:37:12.434Z,33.15
2023-03-04T09:39:39.211Z,32.36
2023-03-04T09:42:09.667Z,32.22
2023-03-04T09:44:41.128Z,31.80
2023-03-04T09:47:20.366Z,31.22
2023-03-04T09:50:11.673Z,30.84
2023-03-04T09:53:14.813Z,30.61
2023-03-04T09:55:47.035Z,30.49
2023-03-04T09:58:27.332Z,29.91
2023-03-04T10:01:19.420Z,29.98
2023-03-04T10:03:53.011Z,29.54
2023-03-04T10:06:21.614Z,29.03
2023-03-04T10:09:20.477Z,28.68
2023-03-04T10:12:03.975Z,28.22
2023-03-04T10:14:42.824Z,26.97
2023-03-04T10:17:30.298Z,25.11
2023-03-04T10:20:12.058Z,24.11
2023-03-04T10:22:46.061Z,22.66
2023-03-04T10:25:31.077Z,20.56
2023-03-04T10:28:19.870Z,20.90
2023-03-04T10:30:52.782Z,20.07
2023-03-04T10:33:30.106Z,18.78
2023-03-04T10:36:01.370Z,16.20
2023-03-04T10:38:34.605Z,16.21
2023-03-04T10:41:10.426Z,17.07
2023-03-04T10:43:37.539Z,16.52
2023-03-04T10:46:04.708Z,16.38
2023-03-04T10:48:31.949Z,15.80
2023-03-04T10:51:18.653Z,14.54
2023-03-04T10:53:48.419Z,15.38
2023-03-04T10:56:45.095Z,15.30
2023-03-04T10:59:32.835Z,14.94
2023-03-04T11:02:01.930Z,15.17
2023-03-04T11:04:33.883Z,14.66
2023-03-04T11:07:00.628Z,14.34
2023-03-04T11:09:30.237Z,13.88
2023-03-04T11:12:01.520Z,13.85
2023-03-04T11:14:36.942Z,13.95
2023-03-04T11:17:17.191Z,13.64
2023-03-04T11:19:47.934Z,13.40
2023-03-04T11:22:18.224Z,13.94
2023-03-04T11:25:02.300Z,13.44
2023-03-04T11:27:37.212Z,13.41
2023-03-04T11:30:24.751Z,12.83
2023-03-04T11:32:55.397Z,14.12
2023-03-04T11:35:32.410Z,14.75
2023-03-04T11:38:16.518Z,14.18
2023-03-04T11:40:54.149Z,14.47
2023-03-04T11:43:29.892Z,15.12
2023-03-04T11:46:27.815Z,16.25
2023-03-04T11:49:22.754Z,17.05
2023-03-04T11:52:05.042Z,17.50
2023-03-04T11:54:56.858Z,18.50
2023-03-04T11:57:54.570Z,19.54
2023-03-04T12:00:35.241Z,20.72
2023-03-04T12:03:38.110Z,21.66
2023-03-04T12:06:04.944Z,22.52
2023-03-04T12:08:49.265Z,22.82
2023-03-04T12:11:32.697Z,23.27
2023-03-04T12:14:11.591Z,24.07
2023-03-04T12:17:24.097Z,24.19
2023-03-04T12:19:59.371Z,23.25
2023-03-04T12:22:57.217Z,23.07
2023-03-04T12:25:45.027Z,23.67
2023-03-04T12:28:51.544Z,23.39
2023-03-04T12:31:39.127Z,22.85
2023-03-04T12:34:27.365Z,21.87
2023-03-04T12:37:32.684Z,21.07
2023-03-04T12:40:06.536Z,20.91
2023-03-04T12:42:55.788Z,20.40
2023-03-04T12:45:42.104Z,21.12
2023-03-04T12:48:23.163Z,21.77
2023-03-04T12:51:14.070Z,21.50
2023-03-04T12:53:46.547Z,20.68
2023-03-04T12:56:51.745Z,21.91
2023-03-04T12:59:21.587Z,21.18
2023-03-04T13:01:53.948Z,21.74
2023-03-04T13:05:06.902Z,22.11
2023-03-04T13:07:59.614Z,21.06
2023-03-04T13:10:26.421Z,20.34
2023-03-04T13:12:55.985Z,19.13
2023-03-04T13:15:30.430Z,17.99
2023-03-04T13:18:30.934Z,17.94
2023-03-04T13:21:25.807Z,18.99
2023-03-04T13:23:53.667Z,18.99
2023-03-04T13:26:28.684Z,18.90
2023-03-04T13:29:15.513Z,18.59
2023-03-04T13:32:11.468Z,18.61
2023-03-04T13:34:45.367Z,18.35
2023-03-04T13:37:35.946Z,18.03
2023-03-04T13:40:22.924Z,18.14
2023-03-04T13:42:50.382Z,18.12
2023-03-04T13:45:36.982Z,17.85
2023-03-04T13:48:27.519Z,17.52
2023-03-04T13:50:55.257Z,17.93
2023-03-04T13:53:49.406Z,18.39
2023-03-04T13:56:28.732Z,18.57
2023-03-04T13:59:14.640Z,18.58
2023-03-04T14:01:44.352Z,18.94
2023-03-04T14:04:24.527Z,18.70
2023-03-04T14:06:53.518Z,19.02
2023-03-04T14:09:29.359Z,18.97
2023-03-04T14:11:58.128Z,19.30
2023-03-04T14:14:28.711Z,19.44
2023-03-04T14:17:02.619Z,19.74
2023-03-04T14:19:32.925Z,20.10
2023-03-04T14:22:00.363Z,20.26
2023-03-04T14:24:27.232Z,20.41
2023-03-04T14:27:11.275Z,20.79
2023-03-04T14:29:37.944Z,21.21
2023-03-04T14:32:06.063Z,21.57
2023-03-04T14:34:35.922Z,21.97
2023-03-04T14:37:20.587Z,22.60
2023-03-04T14:39:52.712Z,22.83
2023-03-04T14:42:22.276Z,23.28
2023-03-04T14:44:50.382Z,23.69
2023-03-04T14:47:24.326Z,24.32
2023-03-04T14:49:51.476Z,24.40
2023-03-04T14:52:38.177Z,24.71
2023-03-04T14:55:14.368Z,25.02
2023-03-04T14:57:43.822Z,25.08
2023-03-04T15:00:19.617Z,25.54
2023-03-04T15:02:58.888Z,25.78
2023-03-04T15:05:35.732Z,25.77
2023-03-04T15:08:16.576Z,26.12
2023-03-04T15:10:59.806Z,26.35
2023-03-04T15:13:42.971Z,26.45
2023-03-04T15:16:12.700Z,26.61
2023-03-04T15:18:57.383Z,27.29
2023-03-04T15:21:36.844Z,27.62
2023-03-04T15:24:05.644Z,27.80
2023-03-04T15:26:35.242Z,27.82
2023-03-04T15:29:10.302Z,28.11
2023-03-04T15:31:37.111Z,28.55
2023-03-04T15:34:11.416Z,29.00
2023-03-04T15:36:38.544Z,29.35
2023-03-04T15:39:05.524Z,30.00
2023-03-04T15:41:32.272Z,30.30
2023-03-04T15:43:58.778Z,30.50
2023-03-04T15:46:25.584Z,31.25
2023-03-04T15:48:52.361Z,31.20
2023-03-04T15:51:22.741Z,31.76
2023-03-04T15:53:52.890Z,31.74
2023-03-04T15:56:25.181Z,32.20
2023-03-04T15:59:13.069Z,32.64
2023-03-04T16:01:39.976Z,32.70
2023-03-04T16:04:12.808Z,33.04
2023-03-04T16:06:40.403Z,33.61
2023-03-04T16:09:13.825Z,33.64
2023-03-04T16:11:44.894Z,34.08
2023-03-04T16:14:13.757Z,34.42
2023-03-04T16:16:41.422Z,34.62
2023-03-04T16:19:08.051Z,34.71
2023-03-04T16:21:34.902Z,35.21
2023-03-04T16:24:02.548Z,35.47
2023-03-04T16:26:30.689Z,35.59
2023-03-04T16:28:57.819Z,35.99
2023-03-04T16:31:24.580Z,36.48
2023-03-04T16:33:51.361Z,36.92
2023-03-04T16:36:27.055Z,37.17
2023-03-04T16:39:01.998Z,38.64
2023-03-04T16:41:32.493Z,39.21
2023-03-04T16:44:00.724Z,39.62
2023-03-04T16:46:27.856Z,40.20
2023-03-04T16:48:55.037Z,41.35
2023-03-04T16:51:22.986Z,41.25
2023-03-04T16:53:55.774Z,41.76
2023-03-04T16:56:23.556Z,42.48
2023-03-04T16:58:50.220Z,42.72
2023-03-04T17:01:24.015Z,42.88
2023-03-04T17:03:51.845Z,42.56
2023-03-04T17:06:20.207Z,42.78
2023-03-04T17:08:46.934Z,42.07
2023-03-04T17:11:17.748Z,41.80
2023-03-04T17:13:45.090Z,42.01
2023-03-04T17:16:12.400Z,41.84
2023-03-04T17:18:39.299Z,41.80
2023-03-04T17:21:10.010Z,41.14
2023-03-04T17:23:37.032Z,41.46
2023-03-04T17:26:04.410Z,41.20
2023-03-04T17:28:31.313Z,41.46
2023-03-04T17:30:57.955Z,41.40
2023-03-04T17:33:24.612Z,41.66
2023-03-04T17:35:51.318Z,41.54
2023-03-04T17:38:18.371Z,42.22
2023-03-04T17:40:44.984Z,42.09
2023-03-04T17:43:11.639Z,42.32
2023-03-04T17:45:42.647Z,42.39
2023-03-04T17:48:14.764Z,42.28
2023-03-04T17:50:52.185Z,42.41
2023-03-04T17:53:19.942Z,42.54
2023-03-04T17:55:54.927Z,42.44
2023-03-04T17:58:22.648Z,42.16
2023-03-04T18:00:52.043Z,42.30
2023-03-04T18:03:19.347Z,42.17
2023-03-04T18:05:45.941Z,42.52
2023-03-04T18:08:12.541Z,42.32
2023-03-04T18:10:39.227Z,42.82
2023-03-04T18:13:05.916Z,42.68
2023-03-04T18:15:32.774Z,42.89
2023-03-04T18:17:59.573Z,42.96
2023-03-04T18:20:26.475Z,43.01
2023-03-04T18:22:53.413Z,43.16
2023-03-04T18:25:20.849Z,43.41
2023-03-04T18:27:47.600Z,43.41
2023-03-04T18:30:17.310Z,43.55
2023-03-04T18:32:51.760Z,44.08
2023-03-04T18:35:19.877Z,44.16
2023-03-04T18:37:47.723Z,44.10
2023-03-04T18:40:15.318Z,44.48
2023-03-04T18:42:44.897Z,44.56
2023-03-04T18:45:13.134Z,44.58
2023-03-04T18:47:43.327Z,44.36
2023-03-04T18:50:12.020Z,44.34
2023-03-04T18:52:39.078Z,44.51
2023-03-04T18:55:06.325Z,44.49
2023-03-04T18:57:33.418Z,44.55
2023-03-04T19:00:03.483Z,44.94
2023-03-04T19:02:59.078Z,44.68
2023-03-04T19:05:28.442Z,45.09
2023-03-04T19:07:55.432Z,45.37
2023-03-04T19:10:23.253Z,44.81
2023-03-04T19:12:49.882Z,45.21
2023-03-04T19:15:17.753Z,44.99
2023-03-04T19:17:47.190Z,44.77
2023-03-04T19:20:15.279Z,45.13
2023-03-04T19:22:43.215Z,45.33
2023-03-04T19:25:11.184Z,44.86
2023-03-04T19:27:37.821Z,45.18
2023-03-04T19:30:05.735Z,45.53
2023-03-04T19:32:33.125Z,45.31
2023-03-04T19:34:59.885Z,45.50
2023-03-04T19:37:26.498Z,45.57
2023-03-04T19:39:55.386Z,45.46
2023-03-04T19:42:23.294Z,45.60
2023-03-04T19:44:49.914Z,45.71
2023-03-04T19:47:16.813Z,46.01
2023-03-04T19:49:43.408Z,46.34
2023-03-04T19:52:10.030Z,46.04
2023-03-04T19:54:36.774Z,46.21
2023-03-04T19:57:03.631Z,46.09
2023-03-04T19:59:30.160Z,45.90
2023-03-04T20:01:56.894Z,46.07
2023-03-04T20:04:23.645Z,46.67
2023-03-04T20:06:50.790Z,46.19
2023-03-04T20:09:18.341Z,45.75
2023-03-04T20:11:57.823Z,45.84
2023-03-04T20:14:26.865Z,45.89
2023-03-04T20:16:54.636Z,46.04
2023-03-04T20:19:21.266Z,46.37
2023-03-04T20:21:48.226Z,46.18
2023-03-04T20:24:14.863Z,46.43
2023-03-04T20:26:41.602Z,46.33
2023-03-04T20:29:08.166Z,46.11
2023-03-04T20:31:38.498Z,46.36
2023-03-04T20:34:06.949Z,46.56
2023-03-04T20:36:34.087Z,46.00
2023-03-04T20:39:03.271Z,46.44
2023-03-04T20:41:34.018Z,46.52
2023-03-04T20:44:00.832Z,46.94
2023-03-04T20:46:34.161Z,46.48
2023-03-04T20:49:03.694Z,46.64
2023-03-04T20:51:31.841Z,46.74
2023-03-04T20:53:59.300Z,47.76
2023-03-04T20:56:26.541Z,47.83
2023-03-04T20:58:55.136Z,47.55
2023-03-04T21:01:22.714Z,47.76
2023-03-04T21:03:49.765Z,47.96
2023-03-04T21:06:16.373Z,47.65
2023-03-04T21:08:43.635Z,47.90
2023-03-04T21:11:15.683Z,47.97
2023-03-04T21:13:42.844Z,48.55
2023-03-04T21:16:16.845Z,48.47
2023-03-04T21:18:44.113Z,48.68
2023-03-04T21:21:21.500Z,48.35
2023-03-04T21:23:53.060Z,49.27
2023-03-04T21:26:21.746Z,50.32
2023-03-04T21:28:50.441Z,50.77
2023-03-04T21:31:39.800Z,51.28
2023-03-04T21:34:14.768Z,51.67
2023-03-04T21:36:41.469Z,51.60
2023-03-04T21:39:13.122Z,51.47
2023-03-04T21:41:39.826Z,51.73
2023-03-04T21:44:06.613Z,51.67
2023-03-04T21:46:34.913Z,51.42
2023-03-04T21:49:03.278Z,50.96
2023-03-04T21:51:30.737Z,51.45
2023-03-04T21:53:57.594Z,51.14
2023-03-04T21:56:24.336Z,51.26
2023-03-04T21:58:51.002Z,51.21
2023-03-04T22:01:19.966Z,50.92
2023-03-04T22:03:49.276Z,50.60
2023-03-04T22:06:21.061Z,50.67
2023-03-04T22:08:48.898Z,50.69
2023-03-04T22:11:15.743Z,50.85
2023-03-04T22:13:42.980Z,50.86
2023-03-04T22:16:10.572Z,50.93
2023-03-04T22:18:40.121Z,50.66
2023-03-04T22:21:11.880Z,50.74
2023-03-04T22:23:39.393Z,50.75
2023-03-04T22:26:10.763Z,50.75
2023-03-04T22:28:37.868Z,50.84
2023-03-04T22:31:17.303Z,50.48
2023-03-04T22:33:44.670Z,50.41
2023-03-04T22:36:12.242Z,50.42
2023-03-04T22:38:40.139Z,50.86
2023-03-04T22:41:15.289Z,50.69
2023-03-04T22:43:42.912Z,51.06
2023-03-04T22:46:20.612Z,51.32
2023-03-04T22:48:52.454Z,51.25
2023-03-04T22:51:20.186Z,51.53
2023-03-04T22:53:48.303Z,52.44
2023-03-04T22:56:15.674Z,53.17
2023-03-04T22:58:44.231Z,54.28
2023-03-04T23:01:12.273Z,53.70
2023-03-04T23:03:40.882Z,54.51
2023-03-04T23:06:15.298Z,54.65
2023-03-04T23:08:44.086Z,54.15
2023-03-04T23:11:22.726Z,54.28
2023-03-04T23:13:50.256Z,54.45
2023-03-04T23:16:18.361Z,53.79
2023-03-04T23:18:46.892Z,53.77
2023-03-04T23:21:16.935Z,53.80
2023-03-04T23:23:44.710Z,53.86
2023-03-04T23:26:20.529Z,53.50
2023-03-04T23:28:48.029Z,53.32
2023-03-04T23:31:15.257Z,53.60
2023-03-04T23:33:42.926Z,53.49
2023-03-04T23:36:14.225Z,53.63
2023-03-04T23:38:45.117Z,53.78
2023-03-04T23:41:17.689Z,53.74
2023-03-04T23:43:45.356Z,53.69
2023-03-04T23:46:12.257Z,53.69
2023-03-04T23:48:42.648Z,53.93
2023-03-04T23:51:09.597Z,54.35
2023-03-04T23:53:38.373Z,53.93
2023-03-04T23:56:09.954Z,53.92
2023-03-04T23:58:37.385Z,54.03
